sensor_id;sensor_type;location;lat;lon;timestamp;P1;durP1;ratioP1;P2;durP2;ratioP2
54464;SDS011;40374;49.480;20.016;2023-06-24T00:01:06;14.20;;;10.90;;
54464;SDS011;40374;49.480;20.016;2023-06-24T00:03:37;15.30;;;10.23;;
54464;SDS011;40374;49.480;20.016;2023-06-24T00:06:05;18.13;;;12.50;;
54464;SDS011;40374;49.480;20.016;2023-06-24T00:08:32;17.23;;;11.60;;
54464;SDS011;40374;49.480;20.016;2023-06-24T00:11:01;12.48;;;9.90;;
54464;SDS011;40374;49.480;20.016;2023-06-24T00:13:29;14.82;;;10.60;;
54464;SDS011;40374;49.480;20.016;2023-06-24T00:15:57;13.20;;;9.90;;
54464;SDS011;40374;49.480;20.016;2023-06-24T00:18:24;11.45;;;8.88;;
54464;SDS011;40374;49.480;20.016;2023-06-24T00:20:56;10.25;;;9.07;;
54464;SDS011;40374;49.480;20.016;2023-06-24T00:23:23;12.13;;;8.60;;
54464;SDS011;40374;49.480;20.016;2023-06-24T00:25:52;12.88;;;8.63;;
54464;SDS011;40374;49.480;20.016;2023-06-24T00:28:21;10.77;;;8.00;;
54464;SDS011;40374;49.480;20.016;2023-06-24T00:30:49;8.95;;;7.57;;
54464;SDS011;40374;49.480;20.016;2023-06-24T00:33:16;13.30;;;7.43;;
54464;SDS011;40374;49.480;20.016;2023-06-24T00:35:46;12.27;;;8.20;;
54464;SDS011;40374;49.480;20.016;2023-06-24T00:38:14;13.77;;;8.48;;
54464;SDS011;40374;49.480;20.016;2023-06-24T00:40:42;20.27;;;11.05;;
54464;SDS011;40374;49.480;20.016;2023-06-24T00:43:09;18.80;;;12.50;;
54464;SDS011;40374;49.480;20.016;2023-06-24T00:45:37;17.63;;;11.27;;
54464;SDS011;40374;49.480;20.016;2023-06-24T00:48:05;16.08;;;12.18;;
54464;SDS011;40374;49.480;20.016;2023-06-24T00:50:32;16.58;;;13.10;;
54464;SDS011;40374;49.480;20.016;2023-06-24T00:53:00;20.73;;;13.07;;
54464;SDS011;40374;49.480;20.016;2023-06-24T00:55:27;19.77;;;12.63;;
54464;SDS011;40374;49.480;20.016;2023-06-24T00:57:55;17.75;;;13.50;;
54464;SDS011;40374;49.480;20.016;2023-06-24T01:00:24;18.23;;;13.68;;
54464;SDS011;40374;49.480;20.016;2023-06-24T01:02:53;15.85;;;12.93;;
54464;SDS011;40374;49.480;20.016;2023-06-24T01:05:21;16.73;;;12.98;;
54464;SDS011;40374;49.480;20.016;2023-06-24T01:07:51;17.40;;;13.18;;
54464;SDS011;40374;49.480;20.016;2023-06-24T01:10:23;22.65;;;14.02;;
54464;SDS011;40374;49.480;20.016;2023-06-24T01:12:51;24.30;;;14.00;;
54464;SDS011;40374;49.480;20.016;2023-06-24T01:15:19;21.40;;;13.85;;
54464;SDS011;40374;49.480;20.016;2023-06-24T01:20:34;20.42;;;13.93;;
54464;SDS011;40374;49.480;20.016;2023-06-24T01:28:41;19.58;;;13.73;;
54464;SDS011;40374;49.480;20.016;2023-06-24T01:31:47;18.30;;;13.50;;
54464;SDS011;40374;49.480;20.016;2023-06-24T01:37:20;28.90;;;16.40;;
54464;SDS011;40374;49.480;20.016;2023-06-24T01:39:56;28.25;;;17.23;;
54464;SDS011;40374;49.480;20.016;2023-06-24T01:42:44;24.42;;;14.70;;
54464;SDS011;40374;49.480;20.016;2023-06-24T01:45:16;28.05;;;15.32;;
54464;SDS011;40374;49.480;20.016;2023-06-24T01:47:47;20.98;;;14.95;;
54464;SDS011;40374;49.480;20.016;2023-06-24T01:50:21;22.73;;;14.55;;
54464;SDS011;40374;49.480;20.016;2023-06-24T01:52:50;27.38;;;17.27;;
54464;SDS011;40374;49.480;20.016;2023-06-24T01:55:20;27.90;;;16.40;;
54464;SDS011;40374;49.480;20.016;2023-06-24T01:57:50;22.83;;;14.55;;
54464;SDS011;40374;49.480;20.016;2023-06-24T02:00:19;22.88;;;15.25;;
54464;SDS011;40374;49.480;20.016;2023-06-24T02:02:48;30.98;;;20.08;;
54464;SDS011;40374;49.480;20.016;2023-06-24T02:05:17;21.38;;;16.42;;
54464;SDS011;40374;49.480;20.016;2023-06-24T02:07:48;25.65;;;16.77;;
54464;SDS011;40374;49.480;20.016;2023-06-24T02:10:18;24.38;;;16.17;;
54464;SDS011;40374;49.480;20.016;2023-06-24T02:12:48;26.42;;;15.35;;
54464;SDS011;40374;49.480;20.016;2023-06-24T02:15:17;22.85;;;15.27;;
54464;SDS011;40374;49.480;20.016;2023-06-24T02:17:48;18.65;;;12.88;;
54464;SDS011;40374;49.480;20.016;2023-06-24T02:20:18;17.13;;;14.32;;
54464;SDS011;40374;49.480;20.016;2023-06-24T02:22:50;18.27;;;11.95;;
54464;SDS011;40374;49.480;20.016;2023-06-24T02:25:18;13.60;;;10.57;;
54464;SDS011;40374;49.480;20.016;2023-06-24T02:27:46;13.77;;;9.55;;
54464;SDS011;40374;49.480;20.016;2023-06-24T02:30:13;12.98;;;8.63;;
54464;SDS011;40374;49.480;20.016;2023-06-24T02:32:42;12.88;;;9.73;;
54464;SDS011;40374;49.480;20.016;2023-06-24T02:35:09;19.30;;;9.75;;
54464;SDS011;40374;49.480;20.016;2023-06-24T02:37:37;13.60;;;9.05;;
54464;SDS011;40374;49.480;20.016;2023-06-24T02:40:05;7.75;;;6.55;;
54464;SDS011;40374;49.480;20.016;2023-06-24T02:42:34;7.68;;;6.05;;
54464;SDS011;40374;49.480;20.016;2023-06-24T02:45:02;10.45;;;6.05;;
54464;SDS011;40374;49.480;20.016;2023-06-24T02:47:32;5.82;;;5.03;;
54464;SDS011;40374;49.480;20.016;2023-06-24T02:50:01;9.80;;;4.90;;
54464;SDS011;40374;49.480;20.016;2023-06-24T02:52:31;6.40;;;4.95;;
54464;SDS011;40374;49.480;20.016;2023-06-24T02:54:59;12.93;;;5.85;;
54464;SDS011;40374;49.480;20.016;2023-06-24T02:57:26;14.00;;;6.50;;
54464;SDS011;40374;49.480;20.016;2023-06-24T03:00:18;9.02;;;4.88;;
54464;SDS011;40374;49.480;20.016;2023-06-24T03:03:12;6.18;;;5.32;;
54464;SDS011;40374;49.480;20.016;2023-06-24T03:05:51;6.28;;;5.07;;
54464;SDS011;40374;49.480;20.016;2023-06-24T03:08:22;8.05;;;5.40;;
54464;SDS011;40374;49.480;20.016;2023-06-24T03:10:56;9.95;;;5.55;;
54464;SDS011;40374;49.480;20.016;2023-06-24T03:13:27;11.05;;;5.80;;
54464;SDS011;40374;49.480;20.016;2023-06-24T03:16:03;15.10;;;5.80;;
54464;SDS011;40374;49.480;20.016;2023-06-24T03:21:08;6.15;;;5.40;;
54464;SDS011;40374;49.480;20.016;2023-06-24T03:23:36;5.63;;;4.93;;
54464;SDS011;40374;49.480;20.016;2023-06-24T03:26:04;7.20;;;5.55;;
54464;SDS011;40374;49.480;20.016;2023-06-24T03:28:32;9.75;;;5.80;;
54464;SDS011;40374;49.480;20.016;2023-06-24T03:31:08;7.50;;;5.95;;
54464;SDS011;40374;49.480;20.016;2023-06-24T03:33:37;6.60;;;5.07;;
54464;SDS011;40374;49.480;20.016;2023-06-24T03:36:05;6.88;;;5.20;;
54464;SDS011;40374;49.480;20.016;2023-06-24T03:38:34;7.28;;;5.70;;
54464;SDS011;40374;49.480;20.016;2023-06-24T03:41:01;8.27;;;5.72;;
54464;SDS011;40374;49.480;20.016;2023-06-24T03:43:29;6.97;;;5.60;;
54464;SDS011;40374;49.480;20.016;2023-06-24T03:45:56;11.90;;;5.75;;
54464;SDS011;40374;49.480;20.016;2023-06-24T03:48:24;8.75;;;5.72;;
54464;SDS011;40374;49.480;20.016;2023-06-24T03:50:52;6.45;;;5.40;;
54464;SDS011;40374;49.480;20.016;2023-06-24T03:53:21;8.73;;;5.85;;
54464;SDS011;40374;49.480;20.016;2023-06-24T03:55:49;8.63;;;5.63;;
54464;SDS011;40374;49.480;20.016;2023-06-24T03:58:17;5.95;;;4.97;;
54464;SDS011;40374;49.480;20.016;2023-06-24T04:00:48;7.93;;;5.75;;
54464;SDS011;40374;49.480;20.016;2023-06-24T04:03:16;9.35;;;5.88;;
54464;SDS011;40374;49.480;20.016;2023-06-24T04:05:45;10.30;;;5.35;;
54464;SDS011;40374;49.480;20.016;2023-06-24T04:08:12;7.95;;;5.25;;
54464;SDS011;40374;49.480;20.016;2023-06-24T04:10:40;10.07;;;5.47;;
54464;SDS011;40374;49.480;20.016;2023-06-24T04:13:11;8.63;;;5.40;;
54464;SDS011;40374;49.480;20.016;2023-06-24T04:15:38;6.35;;;4.80;;
54464;SDS011;40374;49.480;20.016;2023-06-24T04:18:06;7.50;;;4.85;;
54464;SDS011;40374;49.480;20.016;2023-06-24T04:20:34;5.45;;;4.65;;
54464;SDS011;40374;49.480;20.016;2023-06-24T04:23:04;5.85;;;4.45;;
54464;SDS011;40374;49.480;20.016;2023-06-24T04:25:32;7.65;;;5.00;;
54464;SDS011;40374;49.480;20.016;2023-06-24T04:28:01;4.70;;;4.03;;
54464;SDS011;40374;49.480;20.016;2023-06-24T04:30:29;11.00;;;5.30;;
54464;SDS011;40374;49.480;20.016;2023-06-24T04:32:57;5.63;;;4.43;;
54464;SDS011;40374;49.480;20.016;2023-06-24T04:35:24;7.05;;;4.53;;
54464;SDS011;40374;49.480;20.016;2023-06-24T04:37:52;7.30;;;4.90;;
54464;SDS011;40374;49.480;20.016;2023-06-24T04:40:19;12.55;;;5.22;;
54464;SDS011;40374;49.480;20.016;2023-06-24T04:42:47;12.63;;;5.55;;
54464;SDS011;40374;49.480;20.016;2023-06-24T04:45:14;6.20;;;4.63;;
54464;SDS011;40374;49.480;20.016;2023-06-24T04:47:42;7.68;;;5.38;;
54464;SDS011;40374;49.480;20.016;2023-06-24T04:50:10;7.20;;;4.32;;
54464;SDS011;40374;49.480;20.016;2023-06-24T04:52:38;6.88;;;5.18;;
54464;SDS011;40374;49.480;20.016;2023-06-24T04:55:06;8.02;;;4.75;;
54464;SDS011;40374;49.480;20.016;2023-06-24T04:57:34;6.93;;;4.85;;
54464;SDS011;40374;49.480;20.016;2023-06-24T05:00:01;7.30;;;5.13;;
54464;SDS011;40374;49.480;20.016;2023-06-24T08:59:00;21.33;;;14.50;;
54464;SDS011;40374;49.480;20.016;2023-06-24T09:01:28;21.77;;;16.83;;
54464;SDS011;40374;49.480;20.016;2023-06-24T09:03:56;25.33;;;17.92;;
54464;SDS011;40374;49.480;20.016;2023-06-24T09:06:24;25.00;;;17.40;;
54464;SDS011;40374;49.480;20.016;2023-06-24T09:08:52;25.08;;;16.15;;
54464;SDS011;40374;49.480;20.016;2023-06-24T09:11:26;26.92;;;17.95;;
54464;SDS011;40374;49.480;20.016;2023-06-24T09:13:58;22.77;;;17.48;;
54464;SDS011;40374;49.480;20.016;2023-06-24T09:16:27;22.38;;;17.02;;
54464;SDS011;40374;49.480;20.016;2023-06-24T09:18:56;22.27;;;16.20;;
54464;SDS011;40374;49.480;20.016;2023-06-24T09:21:27;23.70;;;16.40;;
54464;SDS011;40374;49.480;20.016;2023-06-24T09:23:58;22.15;;;16.77;;
54464;SDS011;40374;49.480;20.016;2023-06-24T09:26:26;20.52;;;16.02;;
54464;SDS011;40374;49.480;20.016;2023-06-24T09:28:57;24.27;;;16.75;;
54464;SDS011;40374;49.480;20.016;2023-06-24T09:31:25;17.27;;;14.90;;
54464;SDS011;40374;49.480;20.016;2023-06-24T09:33:56;18.00;;;15.05;;
54464;SDS011;40374;49.480;20.016;2023-06-24T09:36:24;19.73;;;16.00;;
54464;SDS011;40374;49.480;20.016;2023-06-24T09:38:54;19.42;;;15.18;;
54464;SDS011;40374;49.480;20.016;2023-06-24T09:41:24;18.95;;;14.40;;
54464;SDS011;40374;49.480;20.016;2023-06-24T09:43:52;16.42;;;13.90;;
54464;SDS011;40374;49.480;20.016;2023-06-24T09:46:25;19.27;;;15.18;;
54464;SDS011;40374;49.480;20.016;2023-06-24T09:48:55;18.33;;;15.00;;
54464;SDS011;40374;49.480;20.016;2023-06-24T09:51:22;14.82;;;12.55;;
54464;SDS011;40374;49.480;20.016;2023-06-24T09:53:51;14.70;;;13.10;;
54464;SDS011;40374;49.480;20.016;2023-06-24T09:56:22;15.80;;;13.65;;
54464;SDS011;40374;49.480;20.016;2023-06-24T09:58:49;16.73;;;12.77;;
54464;SDS011;40374;49.480;20.016;2023-06-24T10:01:17;8.73;;;7.78;;
54464;SDS011;40374;49.480;20.016;2023-06-24T10:03:45;9.80;;;8.73;;
54464;SDS011;40374;49.480;20.016;2023-06-24T10:06:13;12.00;;;10.82;;
54464;SDS011;40374;49.480;20.016;2023-06-24T10:08:41;14.77;;;13.27;;
54464;SDS011;40374;49.480;20.016;2023-06-24T10:11:09;16.02;;;13.60;;
54464;SDS011;40374;49.480;20.016;2023-06-24T10:13:36;22.08;;;13.18;;
54464;SDS011;40374;49.480;20.016;2023-06-24T10:16:05;13.52;;;10.88;;
54464;SDS011;40374;49.480;20.016;2023-06-24T10:18:35;13.70;;;11.73;;
54464;SDS011;40374;49.480;20.016;2023-06-24T10:21:05;13.23;;;10.00;;
54464;SDS011;40374;49.480;20.016;2023-06-24T10:23:38;13.32;;;11.20;;
54464;SDS011;40374;49.480;20.016;2023-06-24T10:26:09;13.38;;;11.15;;
54464;SDS011;40374;49.480;20.016;2023-06-24T10:36:55;8.38;;;6.53;;
54464;SDS011;40374;49.480;20.016;2023-06-24T10:44:54;6.78;;;5.85;;
54464;SDS011;40374;49.480;20.016;2023-06-24T10:47:24;10.27;;;7.30;;
54464;SDS011;40374;49.480;20.016;2023-06-24T10:49:52;10.18;;;5.90;;
54464;SDS011;40374;49.480;20.016;2023-06-24T10:52:21;7.80;;;6.10;;
54464;SDS011;40374;49.480;20.016;2023-06-24T10:54:50;7.65;;;5.38;;
54464;SDS011;40374;49.480;20.016;2023-06-24T10:57:23;4.22;;;3.22;;
54464;SDS011;40374;49.480;20.016;2023-06-24T10:59:52;5.50;;;3.50;;
54464;SDS011;40374;49.480;20.016;2023-06-24T11:02:22;4.45;;;3.72;;
54464;SDS011;40374;49.480;20.016;2023-06-24T11:07:26;7.75;;;5.95;;
54464;SDS011;40374;49.480;20.016;2023-06-24T11:10:00;9.68;;;7.40;;
54464;SDS011;40374;49.480;20.016;2023-06-24T11:12:40;26.10;;;9.65;;
54464;SDS011;40374;49.480;20.016;2023-06-24T11:15:10;14.52;;;8.20;;
54464;SDS011;40374;49.480;20.016;2023-06-24T11:17:40;14.00;;;9.15;;
54464;SDS011;40374;49.480;20.016;2023-06-24T11:20:10;7.95;;;6.97;;
54464;SDS011;40374;49.480;20.016;2023-06-24T11:22:39;9.00;;;6.63;;
54464;SDS011;40374;49.480;20.016;2023-06-24T11:25:17;17.85;;;7.03;;
54464;SDS011;40374;49.480;20.016;2023-06-24T11:27:47;9.15;;;6.25;;
54464;SDS011;40374;49.480;20.016;2023-06-24T11:30:16;10.00;;;6.38;;
54464;SDS011;40374;49.480;20.016;2023-06-24T11:32:44;7.30;;;6.57;;
54464;SDS011;40374;49.480;20.016;2023-06-24T11:35:12;9.73;;;6.70;;
54464;SDS011;40374;49.480;20.016;2023-06-24T11:37:45;10.38;;;6.93;;
54464;SDS011;40374;49.480;20.016;2023-06-24T11:40:16;9.63;;;6.75;;
54464;SDS011;40374;49.480;20.016;2023-06-24T11:42:47;9.48;;;7.07;;
54464;SDS011;40374;49.480;20.016;2023-06-24T11:45:20;10.70;;;7.60;;
54464;SDS011;40374;49.480;20.016;2023-06-24T11:47:49;17.77;;;8.80;;
54464;SDS011;40374;49.480;20.016;2023-06-24T11:50:16;11.93;;;9.90;;
54464;SDS011;40374;49.480;20.016;2023-06-24T11:52:45;18.67;;;12.48;;
54464;SDS011;40374;49.480;20.016;2023-06-24T11:55:19;18.88;;;13.98;;
54464;SDS011;40374;49.480;20.016;2023-06-24T12:00:21;22.15;;;13.75;;
54464;SDS011;40374;49.480;20.016;2023-06-24T12:02:55;14.63;;;12.18;;
54464;SDS011;40374;49.480;20.016;2023-06-24T12:05:28;14.20;;;11.45;;
54464;SDS011;40374;49.480;20.016;2023-06-24T12:07:57;14.88;;;11.77;;
54464;SDS011;40374;49.480;20.016;2023-06-24T12:10:26;16.08;;;11.82;;
54464;SDS011;40374;49.480;20.016;2023-06-24T12:12:56;15.38;;;10.90;;
54464;SDS011;40374;49.480;20.016;2023-06-24T12:15:25;15.15;;;11.90;;
54464;SDS011;40374;49.480;20.016;2023-06-24T12:17:53;17.27;;;11.48;;
54464;SDS011;40374;49.480;20.016;2023-06-24T12:20:22;15.90;;;10.27;;
54464;SDS011;40374;49.480;20.016;2023-06-24T12:22:54;18.10;;;10.10;;
54464;SDS011;40374;49.480;20.016;2023-06-24T12:25:22;12.05;;;8.52;;
54464;SDS011;40374;49.480;20.016;2023-06-24T12:27:50;10.20;;;8.38;;
54464;SDS011;40374;49.480;20.016;2023-06-24T12:30:17;11.43;;;8.75;;
54464;SDS011;40374;49.480;20.016;2023-06-24T12:32:46;10.25;;;8.15;;
54464;SDS011;40374;49.480;20.016;2023-06-24T12:35:13;11.55;;;7.90;;
54464;SDS011;40374;49.480;20.016;2023-06-24T12:37:41;11.65;;;7.45;;
54464;SDS011;40374;49.480;20.016;2023-06-24T12:40:11;14.65;;;8.52;;
54464;SDS011;40374;49.480;20.016;2023-06-24T12:42:39;12.02;;;8.18;;
54464;SDS011;40374;49.480;20.016;2023-06-24T12:45:07;9.88;;;8.05;;
54464;SDS011;40374;49.480;20.016;2023-06-24T12:47:35;12.90;;;9.05;;
54464;SDS011;40374;49.480;20.016;2023-06-24T12:50:02;15.60;;;9.05;;
54464;SDS011;40374;49.480;20.016;2023-06-24T12:52:35;14.23;;;9.65;;
54464;SDS011;40374;49.480;20.016;2023-06-24T12:55:05;14.65;;;9.25;;
54464;SDS011;40374;49.480;20.016;2023-06-24T12:57:35;18.00;;;9.63;;
54464;SDS011;40374;49.480;20.016;2023-06-24T13:00:03;16.27;;;10.75;;
54464;SDS011;40374;49.480;20.016;2023-06-24T13:02:33;18.13;;;9.90;;
54464;SDS011;40374;49.480;20.016;2023-06-24T13:05:01;20.25;;;11.48;;
54464;SDS011;40374;49.480;20.016;2023-06-24T13:07:30;20.02;;;11.18;;
54464;SDS011;40374;49.480;20.016;2023-06-24T13:09:59;17.73;;;11.35;;
54464;SDS011;40374;49.480;20.016;2023-06-24T13:12:28;17.83;;;12.00;;
54464;SDS011;40374;49.480;20.016;2023-06-24T13:14:56;14.50;;;11.18;;
54464;SDS011;40374;49.480;20.016;2023-06-24T13:17:24;20.02;;;11.90;;
54464;SDS011;40374;49.480;20.016;2023-06-24T13:19:51;16.92;;;11.95;;
54464;SDS011;40374;49.480;20.016;2023-06-24T13:22:20;20.50;;;12.10;;
54464;SDS011;40374;49.480;20.016;2023-06-24T13:24:47;20.92;;;13.52;;
54464;SDS011;40374;49.480;20.016;2023-06-24T13:27:16;20.10;;;13.93;;
54464;SDS011;40374;49.480;20.016;2023-06-24T13:29:44;16.48;;;12.38;;
54464;SDS011;40374;49.480;20.016;2023-06-24T13:32:11;24.88;;;14.15;;
54464;SDS011;40374;49.480;20.016;2023-06-24T13:34:39;19.10;;;12.80;;
54464;SDS011;40374;49.480;20.016;2023-06-24T13:37:07;18.88;;;13.63;;
54464;SDS011;40374;49.480;20.016;2023-06-24T13:39:34;22.15;;;13.07;;
54464;SDS011;40374;49.480;20.016;2023-06-24T13:42:02;24.75;;;14.32;;
54464;SDS011;40374;49.480;20.016;2023-06-24T13:44:30;32.88;;;15.38;;
54464;SDS011;40374;49.480;20.016;2023-06-24T13:46:58;20.23;;;15.75;;
54464;SDS011;40374;49.480;20.016;2023-06-24T13:49:25;29.35;;;17.50;;
54464;SDS011;40374;49.480;20.016;2023-06-24T13:51:53;25.58;;;18.70;;
54464;SDS011;40374;49.480;20.016;2023-06-24T13:54:20;21.58;;;16.30;;
54464;SDS011;40374;49.480;20.016;2023-06-24T13:56:51;23.95;;;16.33;;
54464;SDS011;40374;49.480;20.016;2023-06-24T13:59:18;21.92;;;14.20;;
54464;SDS011;40374;49.480;20.016;2023-06-24T14:01:46;22.70;;;14.05;;
54464;SDS011;40374;49.480;20.016;2023-06-24T14:04:14;20.20;;;13.82;;
54464;SDS011;40374;49.480;20.016;2023-06-24T14:06:42;23.35;;;13.48;;
54464;SDS011;40374;49.480;20.016;2023-06-24T14:09:10;21.52;;;13.45;;
54464;SDS011;40374;49.480;20.016;2023-06-24T14:11:38;21.13;;;13.73;;
54464;SDS011;40374;49.480;20.016;2023-06-24T14:14:05;26.77;;;15.02;;
54464;SDS011;40374;49.480;20.016;2023-06-24T14:16:33;24.83;;;14.60;;
54464;SDS011;40374;49.480;20.016;2023-06-24T14:19:00;26.15;;;14.40;;
54464;SDS011;40374;49.480;20.016;2023-06-24T14:21:28;21.88;;;13.95;;
54464;SDS011;40374;49.480;20.016;2023-06-24T14:23:58;22.42;;;12.13;;
54464;SDS011;40374;49.480;20.016;2023-06-24T14:26:41;17.02;;;11.82;;
54464;SDS011;40374;49.480;20.016;2023-06-24T14:29:08;22.52;;;11.95;;
54464;SDS011;40374;49.480;20.016;2023-06-24T14:31:36;18.85;;;10.65;;
54464;SDS011;40374;49.480;20.016;2023-06-24T14:34:03;19.25;;;11.38;;
54464;SDS011;40374;49.480;20.016;2023-06-24T14:36:31;13.02;;;8.57;;
54464;SDS011;40374;49.480;20.016;2023-06-24T14:38:58;18.17;;;10.27;;
54464;SDS011;40374;49.480;20.016;2023-06-24T14:41:26;16.17;;;9.25;;
54464;SDS011;40374;49.480;20.016;2023-06-24T14:43:54;17.50;;;8.80;;
54464;SDS011;40374;49.480;20.016;2023-06-24T14:46:21;17.42;;;8.27;;
54464;SDS011;40374;49.480;20.016;2023-06-24T14:48:49;17.90;;;9.15;;
54464;SDS011;40374;49.480;20.016;2023-06-24T14:51:17;14.48;;;9.30;;
54464;SDS011;40374;49.480;20.016;2023-06-24T14:53:44;14.80;;;9.27;;
54464;SDS011;40374;49.480;20.016;2023-06-24T14:56:12;13.68;;;8.80;;
54464;SDS011;40374;49.480;20.016;2023-06-24T14:58:39;13.23;;;9.18;;
54464;SDS011;40374;49.480;20.016;2023-06-24T15:01:07;17.65;;;9.77;;
54464;SDS011;40374;49.480;20.016;2023-06-24T15:03:34;18.58;;;9.63;;
54464;SDS011;40374;49.480;20.016;2023-06-24T15:06:02;16.77;;;10.02;;
54464;SDS011;40374;49.480;20.016;2023-06-24T15:08:30;12.93;;;8.65;;
54464;SDS011;40374;49.480;20.016;2023-06-24T15:10:58;13.98;;;9.13;;
54464;SDS011;40374;49.480;20.016;2023-06-24T15:13:25;16.98;;;10.48;;
54464;SDS011;40374;49.480;20.016;2023-06-24T15:15:53;16.85;;;9.85;;
54464;SDS011;40374;49.480;20.016;2023-06-24T15:18:24;18.50;;;9.80;;
54464;SDS011;40374;49.480;20.016;2023-06-24T15:20:52;19.33;;;9.65;;
54464;SDS011;40374;49.480;20.016;2023-06-24T15:23:21;16.48;;;10.15;;
54464;SDS011;40374;49.480;20.016;2023-06-24T15:25:49;12.75;;;9.15;;
54464;SDS011;40374;49.480;20.016;2023-06-24T15:28:18;15.63;;;10.35;;
54464;SDS011;40374;49.480;20.016;2023-06-24T15:30:45;18.67;;;10.05;;
54464;SDS011;40374;49.480;20.016;2023-06-24T15:33:14;19.15;;;12.30;;
54464;SDS011;40374;49.480;20.016;2023-06-24T15:35:41;20.55;;;12.30;;
54464;SDS011;40374;49.480;20.016;2023-06-24T15:38:09;18.70;;;12.02;;
54464;SDS011;40374;49.480;20.016;2023-06-24T15:40:40;22.17;;;13.38;;
54464;SDS011;40374;49.480;20.016;2023-06-24T15:43:08;21.83;;;12.70;;
54464;SDS011;40374;49.480;20.016;2023-06-24T15:45:37;23.20;;;13.68;;
54464;SDS011;40374;49.480;20.016;2023-06-24T15:48:04;21.58;;;12.85;;
54464;SDS011;40374;49.480;20.016;2023-06-24T15:50:33;19.55;;;14.10;;
54464;SDS011;40374;49.480;20.016;2023-06-24T15:53:00;24.75;;;16.80;;
54464;SDS011;40374;49.480;20.016;2023-06-24T15:55:28;25.88;;;16.25;;
54464;SDS011;40374;49.480;20.016;2023-06-24T15:57:56;20.58;;;14.35;;
54464;SDS011;40374;49.480;20.016;2023-06-24T16:00:23;19.35;;;13.23;;
54464;SDS011;40374;49.480;20.016;2023-06-24T16:02:51;17.50;;;13.20;;
54464;SDS011;40374;49.480;20.016;2023-06-24T16:05:19;19.63;;;13.40;;
54464;SDS011;40374;49.480;20.016;2023-06-24T16:07:46;19.40;;;13.15;;
54464;SDS011;40374;49.480;20.016;2023-06-24T16:10:14;19.60;;;12.73;;
54464;SDS011;40374;49.480;20.016;2023-06-24T16:12:42;20.80;;;13.55;;
54464;SDS011;40374;49.480;20.016;2023-06-24T16:15:09;17.55;;;12.65;;
54464;SDS011;40374;49.480;20.016;2023-06-24T16:17:37;19.05;;;12.18;;
54464;SDS011;40374;49.480;20.016;2023-06-24T16:20:05;23.23;;;16.92;;
54464;SDS011;40374;49.480;20.016;2023-06-24T16:22:34;27.77;;;17.58;;
54464;SDS011;40374;49.480;20.016;2023-06-24T16:25:01;25.90;;;16.77;;
54464;SDS011;40374;49.480;20.016;2023-06-24T16:27:29;20.38;;;12.75;;
54464;SDS011;40374;49.480;20.016;2023-06-24T16:29:57;19.77;;;12.25;;
54464;SDS011;40374;49.480;20.016;2023-06-24T16:32:24;20.38;;;11.90;;
54464;SDS011;40374;49.480;20.016;2023-06-24T16:34:52;32.58;;;13.32;;
54464;SDS011;40374;49.480;20.016;2023-06-24T16:37:20;22.55;;;13.10;;
54464;SDS011;40374;49.480;20.016;2023-06-24T16:39:47;17.30;;;11.57;;
54464;SDS011;40374;49.480;20.016;2023-06-24T16:42:15;18.85;;;12.25;;
54464;SDS011;40374;49.480;20.016;2023-06-24T16:44:43;26.20;;;13.77;;
54464;SDS011;40374;49.480;20.016;2023-06-24T16:47:14;21.48;;;12.98;;
54464;SDS011;40374;49.480;20.016;2023-06-24T16:49:41;19.27;;;12.90;;
54464;SDS011;40374;49.480;20.016;2023-06-24T16:52:09;16.98;;;12.38;;
54464;SDS011;40374;49.480;20.016;2023-06-24T16:54:37;19.42;;;13.60;;
54464;SDS011;40374;49.480;20.016;2023-06-24T16:57:04;26.52;;;18.42;;
54464;SDS011;40374;49.480;20.016;2023-06-24T16:59:32;23.88;;;16.00;;
54464;SDS011;40374;49.480;20.016;2023-06-24T17:02:00;28.83;;;19.17;;
54464;SDS011;40374;49.480;20.016;2023-06-24T17:04:27;29.67;;;19.02;;
54464;SDS011;40374;49.480;20.016;2023-06-24T17:06:55;37.33;;;25.95;;
54464;SDS011;40374;49.480;20.016;2023-06-24T17:09:23;57.22;;;36.63;;
54464;SDS011;40374;49.480;20.016;2023-06-24T17:11:50;80.57;;;52.58;;
54464;SDS011;40374;49.480;20.016;2023-06-24T17:14:18;47.35;;;27.70;;
54464;SDS011;40374;49.480;20.016;2023-06-24T18:10:42;17.05;;;12.70;;
54464;SDS011;40374;49.480;20.016;2023-06-24T18:13:11;21.13;;;13.88;;
54464;SDS011;40374;49.480;20.016;2023-06-24T18:15:39;25.92;;;15.15;;
54464;SDS011;40374;49.480;20.016;2023-06-24T18:18:07;23.65;;;14.98;;
54464;SDS011;40374;49.480;20.016;2023-06-24T18:20:34;24.65;;;14.43;;
54464;SDS011;40374;49.480;20.016;2023-06-24T18:23:02;21.88;;;15.48;;
54464;SDS011;40374;49.480;20.016;2023-06-24T18:25:30;23.17;;;14.60;;
54464;SDS011;40374;49.480;20.016;2023-06-24T18:27:58;21.48;;;13.60;;
54464;SDS011;40374;49.480;20.016;2023-06-24T18:30:25;20.10;;;14.02;;
54464;SDS011;40374;49.480;20.016;2023-06-24T18:32:53;23.25;;;15.13;;
54464;SDS011;40374;49.480;20.016;2023-06-24T18:35:20;19.58;;;14.88;;
54464;SDS011;40374;49.480;20.016;2023-06-24T18:37:48;18.08;;;13.48;;
54464;SDS011;40374;49.480;20.016;2023-06-24T18:40:16;19.92;;;13.45;;
54464;SDS011;40374;49.480;20.016;2023-06-24T18:42:44;21.80;;;13.23;;
54464;SDS011;40374;49.480;20.016;2023-06-24T18:45:12;17.58;;;12.77;;
54464;SDS011;40374;49.480;20.016;2023-06-24T18:47:39;24.65;;;13.55;;
54464;SDS011;40374;49.480;20.016;2023-06-24T18:50:07;19.02;;;13.75;;
54464;SDS011;40374;49.480;20.016;2023-06-24T18:52:35;17.20;;;11.90;;
54464;SDS011;40374;49.480;20.016;2023-06-24T18:55:03;18.40;;;12.43;;
54464;SDS011;40374;49.480;20.016;2023-06-24T18:57:31;14.25;;;10.05;;
54464;SDS011;40374;49.480;20.016;2023-06-24T18:59:58;14.35;;;9.98;;
54464;SDS011;40374;49.480;20.016;2023-06-24T19:02:26;13.68;;;9.63;;
54464;SDS011;40374;49.480;20.016;2023-06-24T19:04:53;16.55;;;9.98;;
54464;SDS011;40374;49.480;20.016;2023-06-24T19:07:21;20.48;;;11.75;;
54464;SDS011;40374;49.480;20.016;2023-06-24T19:09:49;26.45;;;17.38;;
54464;SDS011;40374;49.480;20.016;2023-06-24T19:12:17;62.88;;;41.80;;
54464;SDS011;40374;49.480;20.016;2023-06-24T19:14:45;56.38;;;38.33;;
54464;SDS011;40374;49.480;20.016;2023-06-24T19:17:13;40.17;;;27.25;;
54464;SDS011;40374;49.480;20.016;2023-06-24T19:19:40;19.75;;;13.70;;
54464;SDS011;40374;49.480;20.016;2023-06-24T19:22:08;15.18;;;10.70;;
54464;SDS011;40374;49.480;20.016;2023-06-24T19:24:35;10.93;;;6.45;;
54464;SDS011;40374;49.480;20.016;2023-06-24T19:27:04;8.20;;;5.70;;
54464;SDS011;40374;49.480;20.016;2023-06-24T19:29:33;14.50;;;8.95;;
54464;SDS011;40374;49.480;20.016;2023-06-24T19:32:00;12.07;;;8.35;;
54464;SDS011;40374;49.480;20.016;2023-06-24T19:34:28;8.35;;;6.63;;
54464;SDS011;40374;49.480;20.016;2023-06-24T19:36:56;9.15;;;5.82;;
54464;SDS011;40374;49.480;20.016;2023-06-24T19:39:24;11.65;;;5.95;;
54464;SDS011;40374;49.480;20.016;2023-06-24T19:41:51;15.77;;;9.38;;
54464;SDS011;40374;49.480;20.016;2023-06-24T19:44:21;15.50;;;10.63;;
54464;SDS011;40374;49.480;20.016;2023-06-24T19:46:49;12.00;;;9.10;;
54464;SDS011;40374;49.480;20.016;2023-06-24T19:49:17;11.30;;;7.90;;